sensor_id;sensor_type;location;lat;lon;timestamp;pressure;altitude;pressure_sealevel;temperature;humidity
68941;BME280;55982;51.476;7.552;2022-09-01T00:00:45;100252.94;;;16.88;65.54
68941;BME280;55982;51.476;7.552;2022-09-01T00:03:13;100252.41;;;16.81;65.92
68941;BME280;55982;51.476;7.552;2022-09-01T00:05:39;100249.84;;;16.80;66.06
68941;BME280;55982;51.476;7.552;2022-09-01T00:08:05;100248.59;;;16.70;66.59
68941;BME280;55982;51.476;7.552;2022-09-01T00:10:30;100246.03;;;16.68;66.28
68941;BME280;55982;51.476;7.552;2022-09-01T00:12:56;100252.03;;;16.55;67.02
68941;BME280;55982;51.476;7.552;2022-09-01T00:15:22;100255.88;;;16.47;67.32
68941;BME280;55982;51.476;7.552;2022-09-01T00:17:48;100253.25;;;16.47;67.08
68941;BME280;55982;51.476;7.552;2022-09-01T00:20:14;100256.88;;;16.28;69.26
68941;BME280;55982;51.476;7.552;2022-09-01T00:22:39;100253.34;;;16.10;69.61
68941;BME280;55982;51.476;7.552;2022-09-01T00:25:05;100252.81;;;15.85;70.44
68941;BME280;55982;51.476;7.552;2022-09-01T00:27:32;100260.38;;;15.74;71.20
68941;BME280;55982;51.476;7.552;2022-09-01T00:29:59;100260.16;;;15.60;71.48
68941;BME280;55982;51.476;7.552;2022-09-01T00:32:24;100251.91;;;15.49;71.75
68941;BME280;55982;51.476;7.552;2022-09-01T00:34:50;100260.78;;;15.28;73.13
68941;BME280;55982;51.476;7.552;2022-09-01T00:37:15;100261.59;;;15.10;74.50
68941;BME280;55982;51.476;7.552;2022-09-01T00:39:41;100259.63;;;14.95;75.37
68941;BME280;55982;51.476;7.552;2022-09-01T00:42:06;100253.44;;;14.76;75.56
68941;BME280;55982;51.476;7.552;2022-09-01T00:44:32;100249.69;;;14.81;75.57
68941;BME280;55982;51.476;7.552;2022-09-01T00:46:59;100252.13;;;14.86;75.14
68941;BME280;55982;51.476;7.552;2022-09-01T00:49:37;100252.81;;;14.91;74.35
68941;BME280;55982;51.476;7.552;2022-09-01T00:52:09;100242.03;;;14.95;73.89
68941;BME280;55982;51.476;7.552;2022-09-01T00:54:39;100241.69;;;15.03;73.44
68941;BME280;55982;51.476;7.552;2022-09-01T00:57:08;100247.66;;;15.08;72.85
68941;BME280;55982;51.476;7.552;2022-09-01T00:59:34;100237.09;;;15.08;72.79
68941;BME280;55982;51.476;7.552;2022-09-01T01:02:02;100244.22;;;15.06;73.60
68941;BME280;55982;51.476;7.552;2022-09-01T01:04:27;100236.25;;;15.07;72.77
68941;BME280;55982;51.476;7.552;2022-09-01T01:06:56;100243.94;;;15.12;72.49
68941;BME280;55982;51.476;7.552;2022-09-01T01:09:28;100242.38;;;15.08;73.22
68941;BME280;55982;51.476;7.552;2022-09-01T01:11:54;100250.81;;;14.96;73.39
68941;BME280;55982;51.476;7.552;2022-09-01T01:14:23;100236.59;;;14.80;75.83
68941;BME280;55982;51.476;7.552;2022-09-01T01:16:51;100237.06;;;14.49;76.59
68941;BME280;55982;51.476;7.552;2022-09-01T01:22:13;100241.63;;;14.02;80.49
68941;BME280;55982;51.476;7.552;2022-09-01T01:25:00;100248.81;;;13.75;81.88
68941;BME280;55982;51.476;7.552;2022-09-01T01:27:33;100250.16;;;13.64;82.57
68941;BME280;55982;51.476;7.552;2022-09-01T01:30:02;100251.84;;;13.43;83.42
68941;BME280;55982;51.476;7.552;2022-09-01T01:32:28;100246.06;;;13.34;84.02
68941;BME280;55982;51.476;7.552;2022-09-01T01:34:54;100253.28;;;13.29;84.57
68941;BME280;55982;51.476;7.552;2022-09-01T01:37:20;100253.72;;;13.17;84.61
68941;BME280;55982;51.476;7.552;2022-09-01T01:39:50;100253.84;;;13.14;84.64
68941;BME280;55982;51.476;7.552;2022-09-01T01:42:15;100261.16;;;13.06;84.87
68941;BME280;55982;51.476;7.552;2022-09-01T01:44:41;100253.22;;;13.07;84.76
68941;BME280;55982;51.476;7.552;2022-09-01T01:47:10;100259.50;;;13.02;84.44
68941;BME280;55982;51.476;7.552;2022-09-01T01:49:38;100256.75;;;13.06;84.25
68941;BME280;55982;51.476;7.552;2022-09-01T01:52:08;100259.91;;;13.16;84.19
68941;BME280;55982;51.476;7.552;2022-09-01T01:54:34;100262.41;;;13.19;84.02
68941;BME280;55982;51.476;7.552;2022-09-01T01:57:00;100264.81;;;13.25;83.67
68941;BME280;55982;51.476;7.552;2022-09-01T01:59:29;100263.28;;;13.19;83.69
68941;BME280;55982;51.476;7.552;2022-09-01T02:01:54;100262.41;;;13.19;83.97
68941;BME280;55982;51.476;7.552;2022-09-01T02:04:21;100258.97;;;13.17;83.96
68941;BME280;55982;51.476;7.552;2022-09-01T02:06:47;100257.38;;;13.13;83.88
68941;BME280;55982;51.476;7.552;2022-09-01T02:09:16;100261.56;;;12.94;84.84
68941;BME280;55982;51.476;7.552;2022-09-01T02:11:42;100258.72;;;12.75;85.79
68941;BME280;55982;51.476;7.552;2022-09-01T02:14:10;100261.50;;;12.70;86.08
68941;BME280;55982;51.476;7.552;2022-09-01T02:16:37;100268.19;;;12.54;87.14
68941;BME280;55982;51.476;7.552;2022-09-01T02:19:05;100267.69;;;12.43;88.34
68941;BME280;55982;51.476;7.552;2022-09-01T02:21:31;100259.13;;;12.38;87.96
68941;BME280;55982;51.476;7.552;2022-09-01T02:24:03;100269.81;;;12.32;88.26
68941;BME280;55982;51.476;7.552;2022-09-01T02:26:35;100259.81;;;12.43;88.11
68941;BME280;55982;51.476;7.552;2022-09-01T02:29:08;100263.16;;;12.48;87.26
68941;BME280;55982;51.476;7.552;2022-09-01T02:31:35;100261.44;;;12.47;87.51
68941;BME280;55982;51.476;7.552;2022-09-01T02:34:05;100265.72;;;12.50;87.05
68941;BME280;55982;51.476;7.552;2022-09-01T02:36:35;100258.81;;;12.47;87.54
68941;BME280;55982;51.476;7.552;2022-09-01T02:39:12;100259.81;;;12.43;87.89
68941;BME280;55982;51.476;7.552;2022-09-01T02:41:38;100253.06;;;12.36;88.23
68941;BME280;55982;51.476;7.552;2022-09-01T02:44:04;100249.63;;;12.34;88.27
68941;BME280;55982;51.476;7.552;2022-09-01T02:46:38;100253.25;;;12.30;88.96
68941;BME280;55982;51.476;7.552;2022-09-01T02:49:07;100250.53;;;12.07;90.73
68941;BME280;55982;51.476;7.552;2022-09-01T02:51:43;100258.19;;;11.87;91.09
68941;BME280;55982;51.476;7.552;2022-09-01T02:54:10;100249.72;;;11.79;91.83
68941;BME280;55982;51.476;7.552;2022-09-01T02:56:44;100248.78;;;11.80;91.54
68941;BME280;55982;51.476;7.552;2022-09-01T02:59:13;100250.91;;;11.95;90.66
68941;BME280;55982;51.476;7.552;2022-09-01T03:01:40;100256.72;;;12.05;90.78
68941;BME280;55982;51.476;7.552;2022-09-01T03:04:06;100253.09;;;12.09;90.05
68941;BME280;55982;51.476;7.552;2022-09-01T03:06:34;100256.78;;;12.03;90.69
68941;BME280;55982;51.476;7.552;2022-09-01T03:09:07;100252.84;;;11.90;92.30
68941;BME280;55982;51.476;7.552;2022-09-01T03:11:34;100252.31;;;11.79;92.02
68941;BME280;55982;51.476;7.552;2022-09-01T03:14:00;100256.03;;;11.72;94.16
68941;BME280;55982;51.476;7.552;2022-09-01T03:16:26;100253.03;;;11.84;93.15
68941;BME280;55982;51.476;7.552;2022-09-01T03:18:52;100263.13;;;11.96;92.78
68941;BME280;55982;51.476;7.552;2022-09-01T03:21:19;100253.97;;;12.09;91.43
68941;BME280;55982;51.476;7.552;2022-09-01T03:23:46;100259.47;;;12.28;90.56
68941;BME280;55982;51.476;7.552;2022-09-01T03:26:13;100261.81;;;12.35;90.24
68941;BME280;55982;51.476;7.552;2022-09-01T03:28:40;100265.06;;;12.43;89.98
68941;BME280;55982;51.476;7.552;2022-09-01T03:31:06;100259.28;;;12.58;88.90
68941;BME280;55982;51.476;7.552;2022-09-01T03:33:33;100260.59;;;12.71;88.34
68941;BME280;55982;51.476;7.552;2022-09-01T03:35:59;100256.72;;;12.81;87.49
68941;BME280;55982;51.476;7.552;2022-09-01T03:38:24;100271.16;;;12.95;86.96
68941;BME280;55982;51.476;7.552;2022-09-01T03:40:53;100252.88;;;12.92;86.77
68941;BME280;55982;51.476;7.552;2022-09-01T03:43:23;100254.09;;;12.81;87.42
68941;BME280;55982;51.476;7.552;2022-09-01T03:45:53;100260.34;;;12.77;87.82
68941;BME280;55982;51.476;7.552;2022-09-01T03:48:21;100262.91;;;12.56;89.08
68941;BME280;55982;51.476;7.552;2022-09-01T03:50:47;100256.28;;;12.44;90.11
68941;BME280;55982;51.476;7.552;2022-09-01T03:53:17;100261.81;;;12.35;90.48
68941;BME280;55982;51.476;7.552;2022-09-01T03:55:46;100256.56;;;12.35;90.36
68941;BME280;55982;51.476;7.552;2022-09-01T03:58:13;100258.81;;;12.21;91.51
68941;BME280;55982;51.476;7.552;2022-09-01T04:00:45;100257.59;;;12.05;91.31
68941;BME280;55982;51.476;7.552;2022-09-01T04:03:11;100266.47;;;12.01;91.45
68941;BME280;55982;51.476;7.552;2022-09-01T04:05:42;100257.91;;;11.96;91.87
68941;BME280;55982;51.476;7.552;2022-09-01T04:08:09;100266.47;;;12.01;90.89
68941;BME280;55982;51.476;7.552;2022-09-01T04:10:41;100254.16;;;12.03;90.78
68941;BME280;55982;51.476;7.552;2022-09-01T04:13:08;100257.69;;;12.02;91.16
68941;BME280;55982;51.476;7.552;2022-09-01T04:15:36;100259.91;;;11.88;91.47
68941;BME280;55982;51.476;7.552;2022-09-01T04:18:02;100253.31;;;11.75;91.97
68941;BME280;55982;51.476;7.552;2022-09-01T04:20:46;100263.22;;;11.65;92.82
68941;BME280;55982;51.476;7.552;2022-09-01T04:23:32;100264.44;;;11.54;93.37
68941;BME280;55982;51.476;7.552;2022-09-01T04:26:01;100257.38;;;11.56;92.99
68941;BME280;55982;51.476;7.552;2022-09-01T04:28:37;100254.03;;;11.51;93.21
68941;BME280;55982;51.476;7.552;2022-09-01T04:31:05;100254.03;;;11.51;93.42
68941;BME280;55982;51.476;7.552;2022-09-01T04:33:32;100254.41;;;11.39;93.99
68941;BME280;55982;51.476;7.552;2022-09-01T04:36:16;100251.19;;;11.29;94.71
68941;BME280;55982;51.476;7.552;2022-09-01T04:38:50;100257.66;;;11.18;96.54
68941;BME280;55982;51.476;7.552;2022-09-01T04:41:20;100252.69;;;11.07;97.39
68941;BME280;55982;51.476;7.552;2022-09-01T04:43:48;100265.94;;;11.02;96.88
68941;BME280;55982;51.476;7.552;2022-09-01T04:46:17;100268.06;;;10.88;97.60
68941;BME280;55982;51.476;7.552;2022-09-01T04:48:43;100266.44;;;10.84;97.90
68941;BME280;55982;51.476;7.552;2022-09-01T04:51:10;100263.97;;;10.78;98.25
68941;BME280;55982;51.476;7.552;2022-09-01T04:53:37;100263.00;;;10.82;99.13
68941;BME280;55982;51.476;7.552;2022-09-01T04:56:04;100260.25;;;10.87;99.19
68941;BME280;55982;51.476;7.552;2022-09-01T04:58:29;100259.78;;;11.03;97.91
68941;BME280;55982;51.476;7.552;2022-09-01T05:00:55;100265.84;;;11.05;98.13
68941;BME280;55982;51.476;7.552;2022-09-01T05:03:20;100261.47;;;11.06;97.68
68941;BME280;55982;51.476;7.552;2022-09-01T05:05:48;100264.13;;;11.04;98.52
68941;BME280;55982;51.476;7.552;2022-09-01T05:08:16;100258.91;;;11.03;99.11
68941;BME280;55982;51.476;7.552;2022-09-01T05:10:46;100261.63;;;11.00;98.71
68941;BME280;55982;51.476;7.552;2022-09-01T05:13:15;100263.22;;;11.05;99.08
68941;BME280;55982;51.476;7.552;2022-09-01T05:15:43;100256.66;;;11.22;96.79
68941;BME280;55982;51.476;7.552;2022-09-01T05:18:16;100253.13;;;11.23;97.47
68941;BME280;55982;51.476;7.552;2022-09-01T05:20:49;100254.75;;;11.27;97.44
68941;BME280;55982;51.476;7.552;2022-09-01T05:23:15;100257.16;;;11.34;97.85
68941;BME280;55982;51.476;7.552;2022-09-01T05:25:49;100252.59;;;11.41;96.49
68941;BME280;55982;51.476;7.552;2022-09-01T05:28:17;100250.94;;;11.67;94.22
68941;BME280;55982;51.476;7.552;2022-09-01T05:30:44;100247.22;;;12.02;92.95
68941;BME280;55982;51.476;7.552;2022-09-01T05:33:11;100254.31;;;12.51;91.34
68941;BME280;55982;51.476;7.552;2022-09-01T05:35:41;100249.66;;;12.83;86.18
68941;BME280;55982;51.476;7.552;2022-09-01T05:38:10;100257.50;;;13.10;84.40
68941;BME280;55982;51.476;7.552;2022-09-01T05:40:41;100256.63;;;13.09;87.73
68941;BME280;55982;51.476;7.552;2022-09-01T05:43:12;100253.38;;;13.26;83.43
68941;BME280;55982;51.476;7.552;2022-09-01T05:45:41;100259.06;;;13.38;82.86
68941;BME280;55982;51.476;7.552;2022-09-01T05:48:12;100256.00;;;13.49;82.35
68941;BME280;55982;51.476;7.552;2022-09-01T05:50:40;100259.59;;;13.69;81.65
68941;BME280;55982;51.476;7.552;2022-09-01T05:53:09;100250.97;;;13.88;79.46
68941;BME280;55982;51.476;7.552;2022-09-01T05:55:41;100268.19;;;13.96;80.01
68941;BME280;55982;51.476;7.552;2022-09-01T05:58:09;100261.44;;;14.11;78.13
68941;BME280;55982;51.476;7.552;2022-09-01T06:00:40;100261.19;;;14.17;79.16
68941;BME280;55982;51.476;7.552;2022-09-01T06:03:07;100268.78;;;14.24;79.42
68941;BME280;55982;51.476;7.552;2022-09-01T06:05:34;100268.91;;;14.21;80.11
68941;BME280;55982;51.476;7.552;2022-09-01T06:08:04;100271.66;;;14.18;80.82
68941;BME280;55982;51.476;7.552;2022-09-01T06:10:31;100271.09;;;14.10;80.17
68941;BME280;55982;51.476;7.552;2022-09-01T06:13:02;100270.03;;;14.16;79.81
68941;BME280;55982;51.476;7.552;2022-09-01T06:15:30;100267.88;;;14.25;79.56
68941;BME280;55982;51.476;7.552;2022-09-01T06:17:57;100276.53;;;14.29;79.06
68941;BME280;55982;51.476;7.552;2022-09-01T06:20:23;100271.75;;;14.38;79.03
68941;BME280;55982;51.476;7.552;2022-09-01T06:22:49;100277.69;;;14.63;80.49
68941;BME280;55982;51.476;7.552;2022-09-01T06:25:20;100276.56;;;14.69;77.78
68941;BME280;55982;51.476;7.552;2022-09-01T06:27:46;100280.97;;;14.68;76.72
68941;BME280;55982;51.476;7.552;2022-09-01T06:30:13;100276.63;;;14.88;77.50
68941;BME280;55982;51.476;7.552;2022-09-01T06:32:41;100286.22;;;15.09;76.78
68941;BME280;55982;51.476;7.552;2022-09-01T06:35:09;100283.69;;;15.26;78.45
68941;BME280;55982;51.476;7.552;2022-09-01T06:37:37;100283.94;;;15.01;75.93
68941;BME280;55982;51.476;7.552;2022-09-01T06:40:03;100284.66;;;15.05;76.14
68941;BME280;55982;51.476;7.552;2022-09-01T06:42:29;100286.22;;;15.09;75.20
68941;BME280;55982;51.476;7.552;2022-09-01T06:44:59;100280.00;;;15.30;74.83
68941;BME280;55982;51.476;7.552;2022-09-01T06:47:25;100287.75;;;15.53;75.87
68941;BME280;55982;51.476;7.552;2022-09-01T06:49:53;100283.28;;;15.55;75.66
68941;BME280;55982;51.476;7.552;2022-09-01T06:52:22;100279.50;;;15.61;74.71
68941;BME280;55982;51.476;7.552;2022-09-01T06:54:48;100286.03;;;15.89;73.65
68941;BME280;55982;51.476;7.552;2022-09-01T06:57:18;100283.75;;;16.00;73.67
68941;BME280;55982;51.476;7.552;2022-09-01T06:59:43;100289.00;;;16.19;73.84
68941;BME280;55982;51.476;7.552;2022-09-01T07:02:10;100279.47;;;16.33;72.75
68941;BME280;55982;51.476;7.552;2022-09-01T07:04:41;100290.75;;;16.56;72.56
68941;BME280;55982;51.476;7.552;2022-09-01T07:07:11;100289.88;;;16.72;72.02
68941;BME280;55982;51.476;7.552;2022-09-01T07:09:40;100287.31;;;16.88;69.90
68941;BME280;55982;51.476;7.552;2022-09-01T07:12:06;100287.53;;;17.33;68.89
68941;BME280;55982;51.476;7.552;2022-09-01T07:14:32;100281.84;;;17.58;67.91
68941;BME280;55982;51.476;7.552;2022-09-01T07:16:57;100287.13;;;17.73;66.80
68941;BME280;55982;51.476;7.552;2022-09-01T07:19:24;100287.66;;;18.11;65.68
68941;BME280;55982;51.476;7.552;2022-09-01T07:21:50;100289.31;;;18.59;63.33
68941;BME280;55982;51.476;7.552;2022-09-01T07:24:18;100289.03;;;18.93;62.40
68941;BME280;55982;51.476;7.552;2022-09-01T07:26:45;100288.06;;;18.80;60.59
68941;BME280;55982;51.476;7.552;2022-09-01T07:29:15;100286.81;;;20.26;59.69
68941;BME280;55982;51.476;7.552;2022-09-01T07:31:42;100284.44;;;20.07;57.06
68941;BME280;55982;51.476;7.552;2022-09-01T07:34:10;100289.97;;;20.97;56.34
68941;BME280;55982;51.476;7.552;2022-09-01T07:36:40;100285.66;;;20.69;53.25
68941;BME280;55982;51.476;7.552;2022-09-01T07:39:07;100286.81;;;21.05;51.72
68941;BME280;55982;51.476;7.552;2022-09-01T07:41:33;100282.59;;;22.25;49.86
68941;BME280;55982;51.476;7.552;2022-09-01T07:43:59;100276.84;;;23.00;48.71
68941;BME280;55982;51.476;7.552;2022-09-01T07:46:27;100280.47;;;22.30;49.57
68941;BME280;55982;51.476;7.552;2022-09-01T07:48:55;100278.06;;;22.38;47.70
68941;BME280;55982;51.476;7.552;2022-09-01T07:51:22;100284.16;;;22.04;49.40
68941;BME280;55982;51.476;7.552;2022-09-01T07:53:48;100289.53;;;21.78;49.71
68941;BME280;55982;51.476;7.552;2022-09-01T07:56:16;100278.41;;;23.59;47.43
68941;BME280;55982;51.476;7.552;2022-09-01T07:58:45;100277.38;;;23.94;47.02
68941;BME280;55982;51.476;7.552;2022-09-01T08:01:20;100277.38;;;23.16;46.08
68941;BME280;55982;51.476;7.552;2022-09-01T08:03:48;100270.63;;;23.90;43.25
68941;BME280;55982;51.476;7.552;2022-09-01T08:06:17;100277.94;;;23.54;47.28
68941;BME280;55982;51.476;7.552;2022-09-01T08:08:44;100271.00;;;22.84;46.87
68941;BME280;55982;51.476;7.552;2022-09-01T08:11:16;100273.06;;;23.48;45.60
68941;BME280;55982;51.476;7.552;2022-09-01T08:13:42;100276.06;;;22.52;45.94
68941;BME280;55982;51.476;7.552;2022-09-01T08:16:08;100270.59;;;24.12;43.67
68941;BME280;55982;51.476;7.552;2022-09-01T08:18:34;100276.72;;;24.66;43.22
68941;BME280;55982;51.476;7.552;2022-09-01T08:21:08;100277.06;;;25.34;41.99
68941;BME280;55982;51.476;7.552;2022-09-01T08:23:34;100276.31;;;25.02;43.05
68941;BME280;55982;51.476;7.552;2022-09-01T08:26:08;100274.41;;;23.76;44.79
68941;BME280;55982;51.476;7.552;2022-09-01T08:28:34;100281.34;;;24.96;43.51
68941;BME280;55982;51.476;7.552;2022-09-01T08:31:04;100286.88;;;24.51;45.12
68941;BME280;55982;51.476;7.552;2022-09-01T08:33:29;100276.78;;;24.01;43.66
68941;BME280;55982;51.476;7.552;2022-09-01T08:35:58;100291.16;;;23.78;44.31
68941;BME280;55982;51.476;7.552;2022-09-01T08:38:24;100288.63;;;24.30;42.20
68941;BME280;55982;51.476;7.552;2022-09-01T08:40:54;100277.88;;;23.99;43.82
68941;BME280;55982;51.476;7.552;2022-09-01T08:46:31;100284.22;;;23.87;44.93
68941;BME280;55982;51.476;7.552;2022-09-01T08:49:00;100280.94;;;24.48;43.08
68941;BME280;55982;51.476;7.552;2022-09-01T08:56:59;100278.38;;;23.26;44.45
68941;BME280;55982;51.476;7.552;2022-09-01T08:59:27;100278.53;;;22.90;44.18
68941;BME280;55982;51.476;7.552;2022-09-01T09:02:02;100276.59;;;23.49;45.46
68941;BME280;55982;51.476;7.552;2022-09-01T09:09:55;100272.25;;;25.08;41.61
68941;BME280;55982;51.476;7.552;2022-09-01T09:16:14;100264.47;;;24.32;42.23
68941;BME280;55982;51.476;7.552;2022-09-01T09:23:44;100258.50;;;24.60;42.03
68941;BME280;55982;51.476;7.552;2022-09-01T09:26:10;100258.53;;;25.43;40.38
68941;BME280;55982;51.476;7.552;2022-09-01T09:28:36;100258.22;;;27.01;39.54
68941;BME280;55982;51.476;7.552;2022-09-01T09:33:58;100243.84;;;26.26;38.36
68941;BME280;55982;51.476;7.552;2022-09-01T09:36:33;100247.72;;;27.17;37.72
68941;BME280;55982;51.476;7.552;2022-09-01T09:39:11;100243.44;;;25.81;38.79
68941;BME280;55982;51.476;7.552;2022-09-01T09:41:39;100240.66;;;24.81;41.66
68941;BME280;55982;51.476;7.552;2022-09-01T09:46:52;100238.06;;;25.72;39.97
68941;BME280;55982;51.476;7.552;2022-09-01T09:49:30;100231.09;;;26.09;39.57
68941;BME280;55982;51.476;7.552;2022-09-01T09:54:37;100231.09;;;25.60;39.36
68941;BME280;55982;51.476;7.552;2022-09-01T09:57:14;100237.16;;;25.11;40.58
68941;BME280;55982;51.476;7.552;2022-09-01T09:59:53;100226.53;;;25.20;41.52
68941;BME280;55982;51.476;7.552;2022-09-01T10:02:24;100218.66;;;26.94;38.91
68941;BME280;55982;51.476;7.552;2022-09-01T10:04:58;100216.84;;;27.41;36.25
68941;BME280;55982;51.476;7.552;2022-09-01T10:07:33;100208.72;;;28.40;35.98
68941;BME280;55982;51.476;7.552;2022-09-01T10:10:03;100216.44;;;26.89;37.37
68941;BME280;55982;51.476;7.552;2022-09-01T10:12:30;100209.38;;;26.12;39.09
68941;BME280;55982;51.476;7.552;2022-09-01T10:15:08;100204.88;;;24.82;39.60
68941;BME280;55982;51.476;7.552;2022-09-01T10:17:39;100208.13;;;25.06;40.88
68941;BME280;55982;51.476;7.552;2022-09-01T10:22:34;100201.75;;;26.36;37.54
68941;BME280;55982;51.476;7.552;2022-09-01T10:25:01;100199.13;;;27.75;36.57
68941;BME280;55982;51.476;7.552;2022-09-01T10:27:34;100199.56;;;28.50;33.74
68941;BME280;55982;51.476;7.552;2022-09-01T10:30:07;100191.06;;;27.48;35.49
68941;BME280;55982;51.476;7.552;2022-09-01T10:32:55;100182.00;;;27.49;35.01
68941;BME280;55982;51.476;7.552;2022-09-01T10:35:30;100187.69;;;27.90;35.33
68941;BME280;55982;51.476;7.552;2022-09-01T10:37:59;100184.59;;;25.80;38.63
68941;BME280;55982;51.476;7.552;2022-09-01T10:45:47;100171.53;;;28.00;35.06
68941;BME280;55982;51.476;7.552;2022-09-01T10:50:52;100175.00;;;27.29;36.77
68941;BME280;55982;51.476;7.552;2022-09-01T11:04:13;100170.66;;;26.81;38.00
68941;BME280;55982;51.476;7.552;2022-09-01T11:14:21;100167.97;;;26.05;38.05
68941;BME280;55982;51.476;7.552;2022-09-01T11:25:44;100164.31;;;26.25;38.16
68941;BME280;55982;51.476;7.552;2022-09-01T11:30:53;100167.88;;;26.16;38.55
68941;BME280;55982;51.476;7.552;2022-09-01T11:47:22;100159.03;;;28.34;34.36
68941;BME280;55982;51.476;7.552;2022-09-01T11:49:57;100160.81;;;28.86;33.16
68941;BME280;55982;51.476;7.552;2022-09-01T11:52:26;100158.94;;;28.18;34.00
68941;BME280;55982;51.476;7.552;2022-09-01T11:54:52;100166.59;;;28.13;33.86
68941;BME280;55982;51.476;7.552;2022-09-01T11:57:23;100159.78;;;27.20;33.83
68941;BME280;55982;51.476;7.552;2022-09-01T11:59:50;100149.16;;;27.55;32.87
68941;BME280;55982;51.476;7.552;2022-09-01T12:02:27;100160.31;;;27.77;33.36
68941;BME280;55982;51.476;7.552;2022-09-01T12:04:54;100150.78;;;26.17;34.20
68941;BME280;55982;51.476;7.552;2022-09-01T12:07:40;100151.38;;;25.12;36.98
68941;BME280;55982;51.476;7.552;2022-09-01T12:10:20;100148.34;;;25.76;33.67
68941;BME280;55982;51.476;7.552;2022-09-01T12:12:46;100145.78;;;27.53;33.60
68941;BME280;55982;51.476;7.552;2022-09-01T12:15:22;100128.25;;;29.06;29.97
68941;BME280;55982;51.476;7.552;2022-09-01T12:17:48;100133.75;;;29.22;30.48
68941;BME280;55982;51.476;7.552;2022-09-01T12:22:45;100118.50;;;29.05;30.54
68941;BME280;55982;51.476;7.552;2022-09-01T12:27:52;100129.19;;;27.21;32.31
68941;BME280;55982;51.476;7.552;2022-09-01T12:30:19;100122.84;;;26.10;33.44
68941;BME280;55982;51.476;7.552;2022-09-01T12:32:45;100117.59;;;26.93;32.60
68941;BME280;55982;51.476;7.552;2022-09-01T12:35:22;100122.97;;;28.96;31.00
68941;BME280;55982;51.476;7.552;2022-09-01T12:37:49;100127.00;;;28.92;29.52
68941;BME280;55982;51.476;7.552;2022-09-01T12:40:31;100117.97;;;27.07;31.09
68941;BME280;55982;51.476;7.552;2022-09-01T12:42:56;100116.06;;;28.25;29.89
68941;BME280;55982;51.476;7.552;2022-09-01T12:45:42;100109.94;;;28.15;29.39
68941;BME280;55982;51.476;7.552;2022-09-01T12:50:50;100107.81;;;27.01;32.24
68941;BME280;55982;51.476;7.552;2022-09-01T12:53:19;100105.22;;;27.64;31.23
68941;BME280;55982;51.476;7.552;2022-09-01T12:55:58;100089.97;;;28.60;29.54
68941;BME280;55982;51.476;7.552;2022-09-01T12:58:25;100075.16;;;28.39;30.96
68941;BME280;55982;51.476;7.552;2022-09-01T13:03:25;100108.75;;;27.82;31.37
68941;BME280;55982;51.476;7.552;2022-09-01T13:05:53;100093.56;;;27.18;32.58
68941;BME280;55982;51.476;7.552;2022-09-01T13:08:22;100086.13;;;27.12;32.01
68941;BME280;55982;51.476;7.552;2022-09-01T13:10:52;100089.22;;;27.80;30.12
68941;BME280;55982;51.476;7.552;2022-09-01T13:13:21;100089.78;;;26.84;33.21
68941;BME280;55982;51.476;7.552;2022-09-01T13:15:51;100081.69;;;27.21;31.38
68941;BME280;55982;51.476;7.552;2022-09-01T13:18:19;100088.13;;;27.10;32.21
68941;BME280;55982;51.476;7.552;2022-09-01T13:20:46;100085.66;;;26.34;33.46
68941;BME280;55982;51.476;7.552;2022-09-01T13:23:12;100082.72;;;25.99;33.25
68941;BME280;55982;51.476;7.552;2022-09-01T13:25:38;100081.97;;;25.40;34.28
68941;BME280;55982;51.476;7.552;2022-09-01T13:28:13;100074.72;;;24.81;35.70
68941;BME280;55982;51.476;7.552;2022-09-01T13:30:39;100073.47;;;24.85;35.33
68941;BME280;55982;51.476;7.552;2022-09-01T13:33:05;100064.94;;;25.01;34.93
68941;BME280;55982;51.476;7.552;2022-09-01T13:35:31;100065.44;;;24.85;35.38
68941;BME280;55982;51.476;7.552;2022-09-01T13:37:57;100067.03;;;24.97;36.72
68941;BME280;55982;51.476;7.552;2022-09-01T13:40:22;100061.19;;;24.83;36.57
68941;BME280;55982;51.476;7.552;2022-09-01T13:42:50;100060.63;;;24.79;37.61
68941;BME280;55982;51.476;7.552;2022-09-01T13:45:20;100063.72;;;24.84;35.34
68941;BME280;55982;51.476;7.552;2022-09-01T13:47:47;100058.63;;;24.51;35.34
68941;BME280;55982;51.476;7.552;2022-09-01T13:50:15;100047.56;;;24.86;35.68
68941;BME280;55982;51.476;7.552;2022-09-01T13:52:47;100054.28;;;24.80;34.56
68941;BME280;55982;51.476;7.552;2022-09-01T13:55:16;100040.53;;;24.94;36.36
68941;BME280;55982;51.476;7.552;2022-09-01T13:57:42;100049.63;;;24.82;36.00
68941;BME280;55982;51.476;7.552;2022-09-01T14:00:11;100038.34;;;24.79;35.35
68941;BME280;55982;51.476;7.552;2022-09-01T14:02:39;100043.13;;;24.75;36.04
68941;BME280;55982;51.476;7.552;2022-09-01T14:05:05;100040.88;;;24.80;35.59
68941;BME280;55982;51.476;7.552;2022-09-01T14:07:31;100042.41;;;24.43;35.33
68941;BME280;55982;51.476;7.552;2022-09-01T14:09:57;100040.69;;;24.42;35.68
68941;BME280;55982;51.476;7.552;2022-09-01T14:12:22;100052.25;;;24.42;36.62
68941;BME280;55982;51.476;7.552;2022-09-01T14:14:48;100044.16;;;24.33;36.30
68941;BME280;55982;51.476;7.552;2022-09-01T14:17:13;100039.69;;;24.13;36.66
68941;BME280;55982;51.476;7.552;2022-09-01T14:19:39;100036.38;;;24.20;37.16
68941;BME280;55982;51.476;7.552;2022-09-01T14:22:06;100036.94;;;24.03;35.98
68941;BME280;55982;51.476;7.552;2022-09-01T14:24:33;100028.72;;;24.16;35.82
68941;BME280;55982;51.476;7.552;2022-09-01T14:27:00;100039.81;;;24.32;36.88
68941;BME280;55982;51.476;7.552;2022-09-01T14:29:26;100034.28;;;24.54;35.46
68941;BME280;55982;51.476;7.552;2022-09-01T14:31:51;100024.94;;;24.18;35.82
68941;BME280;55982;51.476;7.552;2022-09-01T14:34:17;100034.63;;;23.99;35.72
68941;BME280;55982;51.476;7.552;2022-09-01T14:36:43;100037.31;;;23.99;35.68